createdAt,value
2022-09-03T00:00:16.000Z,0
2022-09-03T00:01:31.000Z,0
2022-09-03T00:02:47.000Z,0
2022-09-03T00:04:04.000Z,0
2022-09-03T00:05:20.000Z,0
2022-09-03T00:06:36.000Z,0
2022-09-03T00:07:52.000Z,0
2022-09-03T00:09:08.000Z,0
2022-09-03T00:10:25.000Z,0
2022-09-03T00:11:41.000Z,0
2022-09-03T00:12:57.000Z,0
2022-09-03T00:14:13.000Z,0
2022-09-03T00:15:29.000Z,0
2022-09-03T00:16:45.000Z,0
2022-09-03T00:18:01.000Z,0
2022-09-03T00:19:17.000Z,0
2022-09-03T00:20:33.000Z,0
2022-09-03T00:21:49.000Z,0
2022-09-03T00:23:05.000Z,0
2022-09-03T00:24:22.000Z,0
2022-09-03T00:25:38.000Z,0
2022-09-03T00:26:54.000Z,0
2022-09-03T00:28:10.000Z,0
2022-09-03T00:29:26.000Z,0
2022-09-03T00:30:43.000Z,0
2022-09-03T00:31:59.000Z,0
2022-09-03T00:33:15.000Z,0
2022-09-03T00:34:30.000Z,0
2022-09-03T00:35:46.000Z,0
2022-09-03T00:37:02.000Z,0
2022-09-03T00:38:19.000Z,0
2022-09-03T00:39:35.000Z,0
2022-09-03T00:40:51.000Z,0
2022-09-03T00:42:07.000Z,0
2022-09-03T00:43:23.000Z,0
2022-09-03T00:44:40.000Z,0
2022-09-03T00:45:56.000Z,0
2022-09-03T00:47:12.000Z,0
2022-09-03T00:48:28.000Z,0
2022-09-03T00:49:44.000Z,0
2022-09-03T00:51:00.000Z,0
2022-09-03T00:52:16.000Z,0
2022-09-03T00:53:32.000Z,0
2022-09-03T00:54:48.000Z,0
2022-09-03T00:56:04.000Z,0
2022-09-03T00:57:21.000Z,0
2022-09-03T00:58:37.000Z,0
2022-09-03T00:59:53.000Z,0
2022-09-03T01:01:09.000Z,0
2022-09-03T01:02:25.000Z,0
2022-09-03T01:03:41.000Z,0
2022-09-03T01:04:58.000Z,0
2022-09-03T01:06:14.000Z,0
2022-09-03T01:07:29.000Z,0
2022-09-03T01:08:45.000Z,0
2022-09-03T01:10:01.000Z,0
2022-09-03T01:11:18.000Z,0
2022-09-03T01:12:34.000Z,0
2022-09-03T01:13:50.000Z,0
2022-09-03T01:15:06.000Z,0
2022-09-03T01:16:22.000Z,0
2022-09-03T01:17:39.000Z,0
2022-09-03T01:18:55.000Z,0
2022-09-03T01:20:11.000Z,0
2022-09-03T01:21:27.000Z,0
2022-09-03T01:22:43.000Z,0
2022-09-03T01:23:58.000Z,0
2022-09-03T01:25:15.000Z,0
2022-09-03T01:26:31.000Z,0
2022-09-03T01:27:47.000Z,0
2022-09-03T01:29:03.000Z,0
2022-09-03T01:30:19.000Z,0
2022-09-03T01:31:36.000Z,0
2022-09-03T01:32:52.000Z,0
2022-09-03T01:34:08.000Z,0
2022-09-03T01:35:24.000Z,0
2022-09-03T01:36:40.000Z,0
2022-09-03T01:37:57.000Z,0
2022-09-03T01:39:13.000Z,0
2022-09-03T01:40:28.000Z,0
2022-09-03T01:41:44.000Z,0
2022-09-03T01:43:00.000Z,0
2022-09-03T01:44:17.000Z,0
2022-09-03T01:45:33.000Z,0
2022-09-03T01:46:49.000Z,0
2022-09-03T01:48:05.000Z,0
2022-09-03T01:49:21.000Z,0
2022-09-03T01:50:37.000Z,0
2022-09-03T01:51:54.000Z,0
2022-09-03T01:53:10.000Z,0
2022-09-03T01:54:26.000Z,0
2022-09-03T01:55:42.000Z,0
2022-09-03T01:56:57.000Z,0
2022-09-03T01:58:14.000Z,0
2022-09-03T01:59:30.000Z,0
2022-09-03T02:00:46.000Z,0
2022-09-03T02:02:02.000Z,0
2022-09-03T02:03:18.000Z,0
2022-09-03T02:04:35.000Z,0
2022-09-03T02:05:51.000Z,0
2022-09-03T02:07:07.000Z,0
2022-09-03T02:08:23.000Z,0
2022-09-03T02:09:39.000Z,0
2022-09-03T02:10:55.000Z,0
2022-09-03T02:12:12.000Z,0
2022-09-03T02:13:27.000Z,0
2022-09-03T02:14:43.000Z,0
2022-09-03T02:15:59.000Z,0
2022-09-03T02:17:15.000Z,0
2022-09-03T02:18:32.000Z,0
2022-09-03T02:19:48.000Z,0
2022-09-03T02:21:04.000Z,0
2022-09-03T02:22:20.000Z,0
2022-09-03T02:23:36.000Z,0
2022-09-03T02:24:53.000Z,0
2022-09-03T02:26:09.000Z,0
2022-09-03T02:27:25.000Z,0
2022-09-03T02:28:41.000Z,0
2022-09-03T02:29:56.000Z,0
2022-09-03T02:31:12.000Z,0
2022-09-03T02:32:29.000Z,0
2022-09-03T02:33:45.586Z,0
2022-09-03T02:35:01.000Z,0
2022-09-03T02:36:17.000Z,0
2022-09-03T02:37:33.000Z,0
2022-09-03T02:38:50.000Z,0
2022-09-03T02:40:06.000Z,0
2022-09-03T02:41:22.000Z,0
2022-09-03T02:42:38.000Z,0
2022-09-03T02:43:54.000Z,0
2022-09-03T02:45:11.000Z,0
2022-09-03T02:46:26.000Z,0
2022-09-03T02:47:42.000Z,0
2022-09-03T02:48:58.000Z,0
2022-09-03T02:50:14.000Z,0
2022-09-03T02:51:31.000Z,0
2022-09-03T02:52:47.000Z,0
2022-09-03T02:54:03.000Z,0
2022-09-03T02:55:19.000Z,0
2022-09-03T02:56:35.000Z,0
2022-09-03T02:57:51.000Z,0
2022-09-03T02:59:08.000Z,0
2022-09-03T03:00:24.000Z,0
2022-09-03T03:01:40.000Z,0
2022-09-03T03:02:55.000Z,0
2022-09-03T03:04:11.000Z,0
2022-09-03T03:05:28.000Z,0
2022-09-03T03:06:44.000Z,0
2022-09-03T03:08:00.000Z,0
2022-09-03T03:09:16.000Z,0
2022-09-03T03:10:32.000Z,0
2022-09-03T03:11:49.000Z,0
2022-09-03T03:13:05.000Z,0
2022-09-03T03:14:21.000Z,0
2022-09-03T03:15:37.000Z,0
2022-09-03T03:16:53.000Z,0
2022-09-03T03:18:09.000Z,0
2022-09-03T03:19:25.000Z,0
2022-09-03T03:20:41.000Z,0
2022-09-03T03:21:57.000Z,0
2022-09-03T03:23:13.000Z,0
2022-09-03T03:24:29.000Z,0
2022-09-03T03:25:46.000Z,0
2022-09-03T03:27:02.000Z,0
2022-09-03T03:28:18.000Z,0
2022-09-03T03:29:34.000Z,0
2022-09-03T03:30:50.000Z,0
2022-09-03T03:32:07.000Z,0
2022-09-03T03:33:23.000Z,0
2022-09-03T03:34:39.000Z,0
2022-09-03T03:35:54.000Z,0
2022-09-03T03:37:10.000Z,0
2022-09-03T03:38:26.000Z,0
2022-09-03T03:39:43.000Z,0
2022-09-03T03:40:59.000Z,0
2022-09-03T03:42:15.000Z,0
2022-09-03T03:43:30.000Z,0
2022-09-03T03:44:46.000Z,0
2022-09-03T03:46:03.000Z,0
2022-09-03T03:47:19.000Z,0
2022-09-03T03:48:35.000Z,0
2022-09-03T03:49:51.000Z,0
2022-09-03T03:51:07.000Z,0
2022-09-03T03:52:24.000Z,0
2022-09-03T03:53:40.000Z,0
2022-09-03T03:54:56.000Z,0
2022-09-03T03:56:12.000Z,0
2022-09-03T03:57:28.000Z,0
2022-09-03T03:58:44.000Z,0
2022-09-03T04:00:00.000Z,0
2022-09-03T04:01:16.000Z,0
2022-09-03T04:02:32.000Z,0
2022-09-03T04:03:48.000Z,0
2022-09-03T04:05:04.000Z,0
2022-09-03T04:06:21.000Z,0
2022-09-03T04:07:37.000Z,0
2022-09-03T04:08:53.000Z,0
2022-09-03T04:10:09.000Z,0
2022-09-03T04:11:25.000Z,0
2022-09-03T04:12:42.000Z,0
2022-09-03T04:13:58.000Z,0
2022-09-03T04:15:14.000Z,0
2022-09-03T04:16:29.000Z,0
2022-09-03T04:17:45.000Z,0
2022-09-03T04:19:02.000Z,0
2022-09-03T04:20:18.000Z,0
2022-09-03T04:21:34.000Z,0
2022-09-03T04:22:50.000Z,0
2022-09-03T04:24:06.000Z,0
2022-09-03T04:25:22.000Z,0
2022-09-03T04:26:39.000Z,0
2022-09-03T04:27:55.000Z,0
2022-09-03T04:29:11.000Z,0
2022-09-03T04:30:27.000Z,0
2022-09-03T04:31:43.000Z,0
2022-09-03T04:33:00.000Z,5
2022-09-03T04:34:16.000Z,5
2022-09-03T04:35:32.000Z,5
2022-09-03T04:36:48.000Z,5
2022-09-03T04:38:04.000Z,5
2022-09-03T04:39:21.000Z,11
2022-09-03T04:40:37.000Z,11
2022-09-03T04:41:53.000Z,11
2022-09-03T04:43:09.000Z,11
2022-09-03T04:44:25.000Z,16
2022-09-03T04:45:42.000Z,16
2022-09-03T04:46:58.000Z,16
2022-09-03T04:48:14.000Z,22
2022-09-03T04:49:29.000Z,22
2022-09-03T04:50:45.000Z,28
2022-09-03T04:52:02.000Z,28
2022-09-03T04:53:18.000Z,33
2022-09-03T04:54:34.000Z,33
2022-09-03T04:55:50.000Z,39
2022-09-03T04:57:06.000Z,45
2022-09-03T04:58:22.000Z,45
2022-09-03T04:59:39.000Z,50
2022-09-03T05:00:55.000Z,50
2022-09-03T05:02:11.000Z,56
2022-09-03T05:03:27.000Z,61
2022-09-03T05:04:43.000Z,67
2022-09-03T05:05:59.000Z,118
2022-09-03T05:07:15.000Z,163
2022-09-03T05:08:31.000Z,163
2022-09-03T05:09:47.000Z,180
2022-09-03T05:11:03.000Z,196
2022-09-03T05:12:20.000Z,208
2022-09-03T05:13:36.000Z,236
2022-09-03T05:14:52.000Z,219
2022-09-03T05:16:08.000Z,135
2022-09-03T05:17:24.000Z,106
2022-09-03T05:18:40.000Z,106
2022-09-03T05:19:57.000Z,106
2022-09-03T05:21:13.000Z,112
2022-09-03T05:22:28.000Z,135
2022-09-03T05:23:44.000Z,185
2022-09-03T05:25:00.000Z,185
2022-09-03T05:26:17.000Z,174
2022-09-03T05:27:33.000Z,185
2022-09-03T05:28:49.000Z,168
2022-09-03T05:30:05.000Z,163
2022-09-03T05:31:21.000Z,196
2022-09-03T05:32:38.000Z,236
2022-09-03T05:33:54.000Z,230
2022-09-03T05:35:10.000Z,230
2022-09-03T05:36:26.000Z,225
2022-09-03T05:37:42.000Z,174
2022-09-03T05:38:58.000Z,157
2022-09-03T05:40:14.000Z,168
2022-09-03T05:41:30.000Z,230
2022-09-03T05:42:46.000Z,275
2022-09-03T05:44:02.000Z,264
2022-09-03T05:45:18.000Z,281
2022-09-03T05:46:35.000Z,331
2022-09-03T05:47:51.000Z,348
2022-09-03T05:49:07.000Z,348
2022-09-03T05:50:23.000Z,343
2022-09-03T05:51:39.000Z,253
2022-09-03T05:52:56.000Z,196
2022-09-03T05:54:12.000Z,191
2022-09-03T05:55:27.000Z,191
2022-09-03T05:56:43.000Z,196
2022-09-03T05:57:59.000Z,196
2022-09-03T05:59:16.000Z,225
2022-09-03T06:00:32.000Z,348
2022-09-03T06:01:48.000Z,405
2022-09-03T06:03:04.000Z,382
2022-09-03T06:04:20.000Z,360
2022-09-03T06:05:36.000Z,382
2022-09-03T06:06:53.000Z,438
2022-09-03T06:08:09.000Z,438
2022-09-03T06:09:25.000Z,405
2022-09-03T06:10:41.000Z,438
2022-09-03T06:11:56.000Z,472
2022-09-03T06:13:13.000Z,483
2022-09-03T06:14:29.000Z,388
2022-09-03T06:15:45.000Z,258
2022-09-03T06:17:01.000Z,225
2022-09-03T06:18:17.000Z,258
2022-09-03T06:19:34.000Z,275
2022-09-03T06:20:50.000Z,298
2022-09-03T06:22:06.000Z,343
2022-09-03T06:23:22.000Z,354
2022-09-03T06:24:38.000Z,337
2022-09-03T06:25:54.000Z,292
2022-09-03T06:27:11.000Z,253
2022-09-03T06:28:26.000Z,241
2022-09-03T06:29:42.000Z,247
2022-09-03T06:30:58.000Z,241
2022-09-03T06:32:14.000Z,241
2022-09-03T06:33:31.000Z,241
2022-09-03T06:34:47.000Z,253
2022-09-03T06:36:03.000Z,326
2022-09-03T06:37:19.000Z,511
2022-09-03T06:38:35.000Z,703
2022-09-03T06:39:52.000Z,770
2022-09-03T06:41:08.000Z,804
2022-09-03T06:42:24.000Z,860
2022-09-03T06:43:40.000Z,871
2022-09-03T06:44:55.000Z,900
2022-09-03T06:46:11.000Z,933
2022-09-03T06:47:28.000Z,950
2022-09-03T06:48:44.000Z,933
2022-09-03T06:50:00.000Z,720
2022-09-03T06:51:16.000Z,371
2022-09-03T06:52:32.000Z,309
2022-09-03T06:53:49.000Z,393
2022-09-03T06:55:05.000Z,793
2022-09-03T06:56:21.000Z,1029
2022-09-03T06:57:37.000Z,1068
2022-09-03T06:58:53.000Z,1080
2022-09-03T07:00:10.000Z,815
2022-09-03T07:01:25.000Z,365
2022-09-03T07:02:41.000Z,303
2022-09-03T07:03:57.000Z,292
2022-09-03T07:05:13.000Z,286
2022-09-03T07:06:30.000Z,286
2022-09-03T07:07:46.000Z,286
2022-09-03T07:09:02.000Z,286
2022-09-03T07:10:18.000Z,298
2022-09-03T07:11:34.000Z,331
2022-09-03T07:12:50.000Z,731
2022-09-03T07:14:07.000Z,1130
2022-09-03T07:15:23.000Z,1141
2022-09-03T07:16:39.000Z,1035
2022-09-03T07:17:55.000Z,894
2022-09-03T07:19:10.000Z,978
2022-09-03T07:20:27.000Z,1057
2022-09-03T07:21:43.000Z,658
2022-09-03T07:22:59.000Z,298
2022-09-03T07:24:15.000Z,286
2022-09-03T07:25:31.000Z,281
2022-09-03T07:26:48.000Z,275
2022-09-03T07:28:04.000Z,275
2022-09-03T07:29:20.000Z,270
2022-09-03T07:30:36.000Z,270
2022-09-03T07:31:52.000Z,264
2022-09-03T07:33:08.000Z,264
2022-09-03T07:34:25.000Z,264
2022-09-03T07:35:40.000Z,264
2022-09-03T07:36:56.000Z,264
2022-09-03T07:38:12.000Z,270
2022-09-03T07:39:28.000Z,275
2022-09-03T07:40:45.000Z,281
2022-09-03T07:42:01.000Z,281
2022-09-03T07:43:17.000Z,286
2022-09-03T07:44:33.000Z,286
2022-09-03T07:45:49.000Z,286
2022-09-03T07:47:06.000Z,286
2022-09-03T07:48:22.000Z,286
2022-09-03T07:49:38.000Z,286
2022-09-03T07:50:54.000Z,286
2022-09-03T07:52:09.000Z,292
2022-09-03T07:53:25.000Z,292
2022-09-03T07:54:42.000Z,292
2022-09-03T07:55:58.000Z,292
2022-09-03T07:57:14.000Z,292
2022-09-03T07:58:29.000Z,292
2022-09-03T07:59:45.000Z,292
2022-09-03T08:01:02.000Z,292
2022-09-03T08:02:18.000Z,292
2022-09-03T08:03:34.000Z,298
2022-09-03T08:04:50.000Z,298
2022-09-03T08:06:06.000Z,298
2022-09-03T08:07:23.000Z,303
2022-09-03T08:08:39.000Z,303
2022-09-03T08:09:55.000Z,303
2022-09-03T08:11:11.000Z,303
2022-09-03T08:12:27.000Z,303
2022-09-03T08:13:43.000Z,303
2022-09-03T08:14:59.000Z,309
2022-09-03T08:16:15.000Z,309
2022-09-03T08:17:31.000Z,309
2022-09-03T08:18:47.000Z,315
2022-09-03T08:20:03.000Z,315
2022-09-03T08:21:20.000Z,315
2022-09-03T08:22:36.000Z,326
2022-09-03T08:23:52.000Z,354
2022-09-03T08:25:08.000Z,1141
2022-09-03T08:26:24.000Z,1490
2022-09-03T08:27:41.000Z,922
2022-09-03T08:28:57.000Z,984
2022-09-03T08:30:13.000Z,1080
2022-09-03T08:31:28.000Z,1125
2022-09-03T08:32:44.000Z,1186
2022-09-03T08:34:01.000Z,1018
2022-09-03T08:35:17.000Z,433
2022-09-03T08:36:33.000Z,337
2022-09-03T08:37:49.000Z,326
2022-09-03T08:39:05.000Z,320
2022-09-03T08:40:21.000Z,315
2022-09-03T08:41:38.000Z,315
2022-09-03T08:42:54.000Z,320
2022-09-03T08:44:10.000Z,320
2022-09-03T08:45:26.000Z,320
2022-09-03T08:46:42.000Z,320
2022-09-03T08:47:58.000Z,320
2022-09-03T08:49:14.000Z,320
2022-09-03T08:50:30.000Z,320
2022-09-03T08:51:46.000Z,320
2022-09-03T08:53:02.000Z,320
2022-09-03T08:54:19.000Z,320
2022-09-03T08:55:35.000Z,320
2022-09-03T08:56:51.000Z,320
2022-09-03T08:58:07.000Z,326
2022-09-03T08:59:23.000Z,331
2022-09-03T09:00:39.000Z,337
2022-09-03T09:01:56.000Z,348
2022-09-03T09:03:12.000Z,388
2022-09-03T09:04:27.000Z,1305
2022-09-03T09:05:43.000Z,2075
2022-09-03T09:06:59.000Z,1918
2022-09-03T09:08:16.000Z,725
2022-09-03T09:09:32.000Z,528
2022-09-03T09:10:48.000Z,624
2022-09-03T09:12:04.000Z,663
2022-09-03T09:13:20.000Z,697
2022-09-03T09:14:37.000Z,523
2022-09-03T09:15:53.000Z,365
2022-09-03T09:17:09.000Z,348
2022-09-03T09:18:25.000Z,348
2022-09-03T09:19:41.000Z,343
2022-09-03T09:20:56.000Z,337
2022-09-03T09:22:13.000Z,337
2022-09-03T09:23:29.000Z,337
2022-09-03T09:24:45.000Z,331
2022-09-03T09:26:01.000Z,331
2022-09-03T09:27:17.000Z,337
2022-09-03T09:28:34.000Z,337
2022-09-03T09:29:50.000Z,343
2022-09-03T09:31:06.000Z,348
2022-09-03T09:32:22.000Z,348
2022-09-03T09:33:38.000Z,354
2022-09-03T09:34:55.000Z,348
2022-09-03T09:36:11.000Z,348
2022-09-03T09:37:26.000Z,348
2022-09-03T09:38:42.000Z,354
2022-09-03T09:39:58.000Z,354
2022-09-03T09:41:15.000Z,354
2022-09-03T09:42:31.000Z,354
2022-09-03T09:43:47.000Z,354
2022-09-03T09:45:03.000Z,354
2022-09-03T09:46:19.000Z,354
2022-09-03T09:47:35.000Z,354
2022-09-03T09:48:52.000Z,354
2022-09-03T09:50:08.000Z,354
2022-09-03T09:51:24.000Z,360
2022-09-03T09:52:40.918Z,360
2022-09-03T09:53:55.000Z,360
2022-09-03T09:55:12.000Z,365
2022-09-03T09:56:28.000Z,365
2022-09-03T09:57:44.000Z,371
2022-09-03T09:59:00.000Z,365
2022-09-03T10:00:16.000Z,371
2022-09-03T10:01:33.000Z,376
2022-09-03T10:02:49.000Z,382
2022-09-03T10:04:05.000Z,393
2022-09-03T10:05:21.000Z,399
2022-09-03T10:06:38.000Z,416
2022-09-03T10:07:53.000Z,433
2022-09-03T10:09:10.000Z,466
2022-09-03T10:10:25.000Z,1001
2022-09-03T10:11:41.000Z,2559
2022-09-03T10:12:57.000Z,1901
2022-09-03T10:14:13.000Z,1901
2022-09-03T10:15:30.000Z,1839
2022-09-03T10:16:46.000Z,1198
2022-09-03T10:18:02.000Z,1732
2022-09-03T10:19:18.000Z,1963
2022-09-03T10:20:34.000Z,1125
2022-09-03T10:21:51.000Z,1406
2022-09-03T10:23:07.000Z,1293
2022-09-03T10:24:23.000Z,1991
2022-09-03T10:25:39.000Z,1501
2022-09-03T10:26:54.000Z,1822
2022-09-03T10:28:10.000Z,995
2022-09-03T10:29:27.000Z,1800
2022-09-03T10:30:43.000Z,2025
2022-09-03T10:31:59.000Z,2081
2022-09-03T10:33:15.000Z,2401
2022-09-03T10:34:31.000Z,1321
2022-09-03T10:35:48.000Z,1355
2022-09-03T10:37:04.000Z,1704
2022-09-03T10:38:20.000Z,1490
2022-09-03T10:39:36.000Z,2452
2022-09-03T10:40:52.000Z,2531
2022-09-03T10:42:09.000Z,1794
2022-09-03T10:43:24.000Z,3076
2022-09-03T10:44:40.000Z,2160
2022-09-03T10:45:56.000Z,1389
2022-09-03T10:47:12.000Z,1468
2022-09-03T10:48:29.000Z,1833
2022-09-03T10:49:45.000Z,3037
2022-09-03T10:51:01.000Z,2216
2022-09-03T10:52:17.812Z,2092
2022-09-03T10:53:33.000Z,3583
2022-09-03T10:54:49.000Z,3161
2022-09-03T10:56:06.000Z,1642
2022-09-03T10:57:22.000Z,2784
2022-09-03T10:59:54.000Z,1884
2022-09-03T11:01:09.000Z,1546
2022-09-03T11:02:26.000Z,2064
2022-09-03T11:03:42.000Z,1563
2022-09-03T11:04:58.000Z,2013
2022-09-03T11:06:14.000Z,3498
2022-09-03T11:07:30.000Z,3358
2022-09-03T11:08:47.000Z,2722
2022-09-03T11:10:03.243Z,1597
2022-09-03T11:11:19.000Z,2908
2022-09-03T11:12:35.000Z,3476
2022-09-03T11:13:51.000Z,3476
2022-09-03T11:15:07.000Z,2778
2022-09-03T11:16:24.000Z,1338
2022-09-03T11:17:39.000Z,2379
2022-09-03T11:18:55.000Z,1344
2022-09-03T11:20:11.000Z,933
2022-09-03T11:21:27.000Z,894
2022-09-03T11:22:44.000Z,945
2022-09-03T11:24:00.000Z,939
2022-09-03T11:25:16.000Z,973
2022-09-03T11:26:32.000Z,1001
2022-09-03T11:27:48.000Z,1001
2022-09-03T11:30:21.000Z,1130
2022-09-03T11:31:37.000Z,961
2022-09-03T11:32:53.000Z,1012
2022-09-03T11:34:08.000Z,900
2022-09-03T11:35:25.000Z,860
2022-09-03T11:36:41.000Z,877
2022-09-03T11:37:57.000Z,883
2022-09-03T11:39:13.000Z,871
2022-09-03T11:40:29.000Z,933
2022-09-03T11:41:46.000Z,928
2022-09-03T11:43:02.000Z,945
2022-09-03T11:44:18.000Z,928
2022-09-03T11:45:34.000Z,900
2022-09-03T11:46:50.000Z,900
2022-09-03T11:48:06.000Z,849
2022-09-03T11:49:23.000Z,815
2022-09-03T11:50:38.000Z,826
2022-09-03T11:51:54.000Z,883
2022-09-03T11:53:10.000Z,1006
2022-09-03T11:54:26.000Z,1153
2022-09-03T11:55:43.000Z,1271
2022-09-03T11:56:59.000Z,1215
2022-09-03T11:58:15.000Z,1344
2022-09-03T11:59:31.000Z,1333
2022-09-03T12:00:47.000Z,1850
2022-09-03T12:02:04.000Z,3420
2022-09-03T12:03:20.000Z,3555
2022-09-03T12:04:36.000Z,3712
2022-09-03T12:05:52.000Z,3622
2022-09-03T12:07:07.000Z,2458
2022-09-03T12:08:23.000Z,2638
2022-09-03T12:09:40.000Z,3633
2022-09-03T12:10:56.000Z,3757
2022-09-03T12:12:12.000Z,3605
2022-09-03T12:13:27.000Z,3273
2022-09-03T12:14:43.000Z,2514
2022-09-03T12:16:00.000Z,1788
2022-09-03T12:17:16.000Z,1749
2022-09-03T12:18:32.000Z,2137
2022-09-03T12:19:48.000Z,2463
2022-09-03T12:21:04.000Z,2823
2022-09-03T12:22:21.000Z,3093
2022-09-03T12:23:37.000Z,3178
2022-09-03T12:24:53.000Z,2030
2022-09-03T12:26:09.000Z,2340
2022-09-03T12:27:25.000Z,3453
2022-09-03T12:28:42.000Z,2570
2022-09-03T12:29:57.000Z,2081
2022-09-03T12:31:13.000Z,1192
2022-09-03T12:32:29.000Z,1147
2022-09-03T12:33:45.000Z,1631
2022-09-03T12:35:02.000Z,1873
2022-09-03T12:36:18.000Z,1591
2022-09-03T12:37:34.000Z,1288
2022-09-03T12:38:50.000Z,1563
2022-09-03T12:40:06.000Z,1901
2022-09-03T12:41:22.000Z,1198
2022-09-03T12:42:39.000Z,995
2022-09-03T12:43:55.000Z,1012
2022-09-03T12:45:11.000Z,1203
2022-09-03T12:46:26.000Z,1057
2022-09-03T12:47:42.000Z,1305
2022-09-03T12:48:59.000Z,1468
2022-09-03T12:50:15.000Z,1766
2022-09-03T12:51:31.000Z,1507
2022-09-03T12:52:47.000Z,3341
2022-09-03T12:54:03.000Z,3183
2022-09-03T12:55:20.000Z,3262
2022-09-03T12:56:36.000Z,3217
2022-09-03T12:57:52.000Z,3324
2022-09-03T12:59:08.000Z,2829
2022-09-03T13:00:24.000Z,2086
2022-09-03T13:01:41.000Z,1108
2022-09-03T13:02:56.000Z,916
2022-09-03T13:04:12.000Z,922
2022-09-03T13:05:28.000Z,1800
2022-09-03T13:06:44.000Z,1091
2022-09-03T13:08:00.000Z,990
2022-09-03T13:09:17.000Z,973
2022-09-03T13:10:33.000Z,967
2022-09-03T13:11:49.000Z,1023
2022-09-03T13:13:05.000Z,933
2022-09-03T13:14:21.000Z,905
2022-09-03T13:15:38.000Z,871
2022-09-03T13:16:54.000Z,866
2022-09-03T13:18:10.000Z,984
2022-09-03T13:19:25.000Z,1535
2022-09-03T13:20:41.000Z,2851
2022-09-03T13:21:58.000Z,1777
2022-09-03T13:23:14.000Z,2570
2022-09-03T13:24:30.000Z,2851
2022-09-03T13:25:46.000Z,2486
2022-09-03T13:27:03.074Z,3155
2022-09-03T13:28:19.000Z,3256
2022-09-03T13:29:35.000Z,3307
2022-09-03T13:30:51.000Z,1974
2022-09-03T13:32:07.000Z,1501
2022-09-03T13:33:23.000Z,1271
2022-09-03T13:34:39.000Z,1535
2022-09-03T13:35:55.000Z,1715
2022-09-03T13:37:11.000Z,2317
2022-09-03T13:38:27.000Z,1389
2022-09-03T13:39:43.000Z,1203
2022-09-03T13:40:59.000Z,2182
2022-09-03T13:42:16.000Z,2930
2022-09-03T13:43:32.000Z,2919
2022-09-03T13:44:48.000Z,2840
2022-09-03T13:46:04.000Z,1974
2022-09-03T13:47:20.000Z,1389
2022-09-03T13:48:37.000Z,1164
2022-09-03T13:49:53.000Z,1383
2022-09-03T13:51:09.000Z,2480
2022-09-03T13:52:24.000Z,2913
2022-09-03T13:53:40.000Z,2846
2022-09-03T13:54:57.000Z,2846
2022-09-03T13:56:13.000Z,2660
2022-09-03T13:57:29.000Z,1293
2022-09-03T13:58:45.000Z,1833
2022-09-03T14:00:01.000Z,1029
2022-09-03T14:01:18.000Z,950
2022-09-03T14:02:34.000Z,883
2022-09-03T14:03:50.000Z,849
2022-09-03T14:05:06.000Z,866
2022-09-03T14:06:22.000Z,855
2022-09-03T14:07:38.000Z,815
2022-09-03T14:08:54.000Z,742
2022-09-03T14:10:10.000Z,731
2022-09-03T14:11:26.000Z,731
2022-09-03T14:12:42.000Z,1074
2022-09-03T14:13:58.000Z,793
2022-09-03T14:15:15.000Z,680
2022-09-03T14:16:31.000Z,663
2022-09-03T14:17:47.000Z,635
2022-09-03T14:19:03.000Z,607
2022-09-03T14:20:19.000Z,573
2022-09-03T14:21:36.000Z,1462
2022-09-03T14:22:52.497Z,596
2022-09-03T14:24:08.000Z,556
2022-09-03T14:25:23.000Z,517
2022-09-03T14:26:39.000Z,506
2022-09-03T14:27:56.000Z,511
2022-09-03T14:29:12.000Z,517
2022-09-03T14:30:28.000Z,759
2022-09-03T14:31:44.000Z,483
2022-09-03T14:33:00.000Z,478
2022-09-03T14:34:16.000Z,517
2022-09-03T14:35:33.000Z,540
2022-09-03T14:36:49.000Z,545
2022-09-03T14:38:05.000Z,562
2022-09-03T14:39:21.000Z,562
2022-09-03T14:40:37.000Z,573
2022-09-03T14:41:53.000Z,686
2022-09-03T14:43:09.000Z,1546
2022-09-03T14:44:25.000Z,708
2022-09-03T14:45:41.000Z,1282
2022-09-03T14:46:57.000Z,1906
2022-09-03T14:48:14.000Z,1411
2022-09-03T14:49:30.000Z,1125
2022-09-03T14:50:46.000Z,1580
2022-09-03T14:52:02.000Z,1732
2022-09-03T14:53:18.000Z,1698
2022-09-03T14:54:35.000Z,1704
2022-09-03T14:55:51.000Z,1676
2022-09-03T14:57:07.000Z,1749
2022-09-03T14:58:22.000Z,1749
2022-09-03T14:59:38.000Z,1620
2022-09-03T15:00:54.000Z,663
2022-09-03T15:02:11.000Z,1721
2022-09-03T15:03:27.000Z,1575
2022-09-03T15:04:43.000Z,1254
2022-09-03T15:05:59.000Z,511
2022-09-03T15:07:15.000Z,500
2022-09-03T15:08:32.000Z,911
2022-09-03T15:09:48.000Z,1411
2022-09-03T15:11:04.000Z,1051
2022-09-03T15:12:20.000Z,900
2022-09-03T15:13:36.000Z,1316
2022-09-03T15:14:52.000Z,1507
2022-09-03T15:16:08.000Z,1456
2022-09-03T15:17:24.000Z,1485
2022-09-03T15:18:40.000Z,1096
2022-09-03T15:19:56.000Z,826
2022-09-03T15:21:13.000Z,1350
2022-09-03T15:22:29.000Z,1282
2022-09-03T15:23:45.000Z,1192
2022-09-03T15:25:01.000Z,1125
2022-09-03T15:26:17.000Z,1068
2022-09-03T15:27:33.000Z,883
2022-09-03T15:28:50.000Z,495
2022-09-03T15:30:06.000Z,489
2022-09-03T15:31:21.000Z,810
2022-09-03T15:32:37.000Z,793
2022-09-03T15:33:53.000Z,776
2022-09-03T15:35:10.000Z,748
2022-09-03T15:36:26.000Z,663
2022-09-03T15:37:42.000Z,663
2022-09-03T15:38:58.000Z,731
2022-09-03T15:40:14.000Z,753
2022-09-03T15:41:31.000Z,742
2022-09-03T15:42:47.000Z,748
2022-09-03T15:44:03.000Z,776
2022-09-03T15:45:19.000Z,815
2022-09-03T15:46:35.000Z,838
2022-09-03T15:47:51.000Z,843
2022-09-03T15:49:07.000Z,804
2022-09-03T15:50:23.000Z,405
2022-09-03T15:51:39.000Z,405
2022-09-03T15:52:55.000Z,416
2022-09-03T15:54:11.000Z,410
2022-09-03T15:55:28.000Z,405
2022-09-03T15:56:44.000Z,382
2022-09-03T15:58:00.000Z,376
2022-09-03T15:59:16.000Z,365
2022-09-03T16:00:32.000Z,393
2022-09-03T16:01:49.000Z,489
2022-09-03T16:03:05.000Z,500
2022-09-03T16:04:20.000Z,489
2022-09-03T16:05:36.000Z,483
2022-09-03T16:06:52.000Z,393
2022-09-03T16:08:09.000Z,331
2022-09-03T16:09:25.000Z,292
2022-09-03T16:10:41.000Z,281
2022-09-03T16:11:57.000Z,275
2022-09-03T16:13:13.000Z,286
2022-09-03T16:14:30.000Z,292
2022-09-03T16:15:46.000Z,292
2022-09-03T16:17:02.000Z,286
2022-09-03T16:18:18.000Z,275
2022-09-03T16:19:34.000Z,258
2022-09-03T16:20:49.000Z,253
2022-09-03T16:22:06.000Z,253
2022-09-03T16:23:22.574Z,253
2022-09-03T16:24:38.000Z,258
2022-09-03T16:25:54.000Z,253
2022-09-03T16:27:10.000Z,241
2022-09-03T16:28:26.000Z,225
2022-09-03T16:29:42.000Z,219
2022-09-03T16:30:58.000Z,225
2022-09-03T16:32:14.000Z,236
2022-09-03T16:33:30.000Z,241
2022-09-03T16:34:47.000Z,241
2022-09-03T16:36:03.000Z,247
2022-09-03T16:37:19.000Z,253
2022-09-03T16:38:35.000Z,253
2022-09-03T16:39:51.000Z,258
2022-09-03T16:41:08.000Z,258
2022-09-03T16:42:24.000Z,258
2022-09-03T16:43:40.000Z,258
2022-09-03T16:44:55.000Z,264
2022-09-03T16:46:11.000Z,258
2022-09-03T16:47:27.000Z,247
2022-09-03T16:48:44.000Z,236
2022-09-03T16:50:00.000Z,225
2022-09-03T16:51:16.000Z,219
2022-09-03T16:52:32.000Z,208
2022-09-03T16:53:48.000Z,196
2022-09-03T16:55:05.000Z,191
2022-09-03T16:56:21.000Z,185
2022-09-03T16:57:37.000Z,174
2022-09-03T16:58:53.000Z,168
2022-09-03T17:00:09.000Z,163
2022-09-03T17:01:25.000Z,163
2022-09-03T17:02:41.000Z,157
2022-09-03T17:03:57.000Z,151
2022-09-03T17:05:13.000Z,146
2022-09-03T17:06:29.000Z,146
2022-09-03T17:07:46.000Z,140
2022-09-03T17:09:02.000Z,140
2022-09-03T17:10:18.000Z,140
2022-09-03T17:11:34.000Z,135
2022-09-03T17:12:50.000Z,135
2022-09-03T17:14:06.000Z,135
2022-09-03T17:15:23.000Z,135
2022-09-03T17:16:39.000Z,140
2022-09-03T17:17:54.000Z,140
2022-09-03T17:19:10.000Z,140
2022-09-03T17:20:26.000Z,140
2022-09-03T17:21:43.000Z,135
2022-09-03T17:22:59.000Z,135
2022-09-03T17:24:15.000Z,135
2022-09-03T17:25:31.000Z,135
2022-09-03T17:26:47.000Z,129
2022-09-03T17:28:04.000Z,129
2022-09-03T17:29:20.000Z,129
2022-09-03T17:30:36.000Z,123
2022-09-03T17:31:52.000Z,123
2022-09-03T17:33:08.000Z,118
2022-09-03T17:34:23.000Z,118
2022-09-03T17:35:40.000Z,112
2022-09-03T17:36:56.000Z,106
2022-09-03T17:38:12.000Z,106
2022-09-03T17:39:28.000Z,101
2022-09-03T17:40:44.000Z,101
2022-09-03T17:42:01.000Z,101